sensor_id;sensor_type;location;lat;lon;timestamp;P1;durP1;ratioP1;P2;durP2;ratioP2
39656;SDS011;25337;51.478;7.510;2024-01-15T00:01:45;46.65;;;17.92;;
39656;SDS011;25337;51.478;7.510;2024-01-15T00:04:10;62.92;;;29.60;;
39656;SDS011;25337;51.478;7.510;2024-01-15T00:06:36;34.40;;;12.65;;
39656;SDS011;25337;51.478;7.510;2024-01-15T00:09:02;58.13;;;20.10;;
39656;SDS011;25337;51.478;7.510;2024-01-15T00:11:27;46.50;;;17.38;;
39656;SDS011;25337;51.478;7.510;2024-01-15T00:16:29;58.60;;;20.60;;
39656;SDS011;25337;51.478;7.510;2024-01-15T00:18:55;55.38;;;19.00;;
39656;SDS011;25337;51.478;7.510;2024-01-15T00:21:20;59.35;;;20.88;;
39656;SDS011;25337;51.478;7.510;2024-01-15T00:23:46;65.93;;;27.33;;
39656;SDS011;25337;51.478;7.510;2024-01-15T00:26:12;48.45;;;17.48;;
39656;SDS011;25337;51.478;7.510;2024-01-15T00:28:38;46.30;;;18.30;;
39656;SDS011;25337;51.478;7.510;2024-01-15T00:31:04;54.25;;;23.88;;
39656;SDS011;25337;51.478;7.510;2024-01-15T00:33:30;52.58;;;17.27;;
39656;SDS011;25337;51.478;7.510;2024-01-15T00:35:56;50.33;;;17.50;;
39656;SDS011;25337;51.478;7.510;2024-01-15T00:38:22;69.63;;;22.40;;
39656;SDS011;25337;51.478;7.510;2024-01-15T00:40:48;65.82;;;28.58;;
39656;SDS011;25337;51.478;7.510;2024-01-15T00:43:13;47.55;;;16.60;;
39656;SDS011;25337;51.478;7.510;2024-01-15T00:45:39;61.17;;;22.75;;
39656;SDS011;25337;51.478;7.510;2024-01-15T00:48:05;66.93;;;23.23;;
39656;SDS011;25337;51.478;7.510;2024-01-15T00:50:31;67.40;;;24.48;;
39656;SDS011;25337;51.478;7.510;2024-01-15T00:52:57;63.67;;;22.70;;
39656;SDS011;25337;51.478;7.510;2024-01-15T00:55:22;46.42;;;19.65;;
39656;SDS011;25337;51.478;7.510;2024-01-15T00:57:48;47.58;;;17.85;;
39656;SDS011;25337;51.478;7.510;2024-01-15T01:00:14;72.35;;;25.10;;
39656;SDS011;25337;51.478;7.510;2024-01-15T01:02:39;55.42;;;19.80;;
39656;SDS011;25337;51.478;7.510;2024-01-15T01:05:05;63.60;;;20.77;;
39656;SDS011;25337;51.478;7.510;2024-01-15T01:07:31;56.30;;;18.63;;
39656;SDS011;25337;51.478;7.510;2024-01-15T01:09:56;54.22;;;24.25;;
39656;SDS011;25337;51.478;7.510;2024-01-15T01:12:22;62.08;;;25.48;;
39656;SDS011;25337;51.478;7.510;2024-01-15T01:14:48;50.90;;;22.48;;
39656;SDS011;25337;51.478;7.510;2024-01-15T01:17:13;64.93;;;22.95;;
39656;SDS011;25337;51.478;7.510;2024-01-15T01:19:39;60.22;;;19.52;;
39656;SDS011;25337;51.478;7.510;2024-01-15T01:22:05;54.40;;;20.02;;
39656;SDS011;25337;51.478;7.510;2024-01-15T01:24:30;67.15;;;24.27;;
39656;SDS011;25337;51.478;7.510;2024-01-15T01:26:56;52.88;;;20.13;;
39656;SDS011;25337;51.478;7.510;2024-01-15T01:29:22;51.00;;;20.67;;
39656;SDS011;25337;51.478;7.510;2024-01-15T01:31:48;50.90;;;19.58;;
39656;SDS011;25337;51.478;7.510;2024-01-15T01:34:14;47.38;;;17.60;;
39656;SDS011;25337;51.478;7.510;2024-01-15T01:36:41;40.65;;;15.30;;
39656;SDS011;25337;51.478;7.510;2024-01-15T01:39:07;60.20;;;21.65;;
39656;SDS011;25337;51.478;7.510;2024-01-15T01:41:34;74.00;;;23.67;;
39656;SDS011;25337;51.478;7.510;2024-01-15T01:44:00;67.53;;;27.17;;
39656;SDS011;25337;51.478;7.510;2024-01-15T01:46:26;48.70;;;18.38;;
39656;SDS011;25337;51.478;7.510;2024-01-15T01:48:53;51.03;;;18.80;;
39656;SDS011;25337;51.478;7.510;2024-01-15T01:51:20;59.45;;;25.50;;
39656;SDS011;25337;51.478;7.510;2024-01-15T01:53:48;38.97;;;16.65;;
39656;SDS011;25337;51.478;7.510;2024-01-15T01:56:15;62.58;;;20.70;;
39656;SDS011;25337;51.478;7.510;2024-01-15T01:58:41;42.25;;;15.25;;
39656;SDS011;25337;51.478;7.510;2024-01-15T02:01:07;70.32;;;23.27;;
39656;SDS011;25337;51.478;7.510;2024-01-15T02:03:33;66.70;;;24.65;;
39656;SDS011;25337;51.478;7.510;2024-01-15T02:05:59;77.38;;;24.23;;
39656;SDS011;25337;51.478;7.510;2024-01-15T02:08:26;39.15;;;14.57;;
39656;SDS011;25337;51.478;7.510;2024-01-15T02:10:52;52.25;;;17.38;;
39656;SDS011;25337;51.478;7.510;2024-01-15T02:13:17;41.05;;;14.68;;
39656;SDS011;25337;51.478;7.510;2024-01-15T02:15:44;61.35;;;23.25;;
39656;SDS011;25337;51.478;7.510;2024-01-15T02:18:09;53.40;;;18.05;;
39656;SDS011;25337;51.478;7.510;2024-01-15T02:20:35;50.08;;;18.27;;
39656;SDS011;25337;51.478;7.510;2024-01-15T02:23:11;44.25;;;16.95;;
39656;SDS011;25337;51.478;7.510;2024-01-15T02:25:44;48.38;;;23.58;;
39656;SDS011;25337;51.478;7.510;2024-01-15T02:28:11;45.22;;;18.45;;
39656;SDS011;25337;51.478;7.510;2024-01-15T02:30:41;48.88;;;22.98;;
39656;SDS011;25337;51.478;7.510;2024-01-15T02:33:07;39.85;;;15.57;;
39656;SDS011;25337;51.478;7.510;2024-01-15T02:35:34;36.42;;;14.40;;
39656;SDS011;25337;51.478;7.510;2024-01-15T02:38:03;42.60;;;15.60;;
39656;SDS011;25337;51.478;7.510;2024-01-15T02:40:33;40.43;;;16.47;;
39656;SDS011;25337;51.478;7.510;2024-01-15T02:42:58;48.55;;;21.23;;
39656;SDS011;25337;51.478;7.510;2024-01-15T02:45:24;50.17;;;20.42;;
39656;SDS011;25337;51.478;7.510;2024-01-15T02:47:50;52.55;;;18.63;;
39656;SDS011;25337;51.478;7.510;2024-01-15T02:50:16;50.05;;;19.38;;
39656;SDS011;25337;51.478;7.510;2024-01-15T02:52:42;51.33;;;19.48;;
39656;SDS011;25337;51.478;7.510;2024-01-15T02:55:08;45.65;;;17.67;;
39656;SDS011;25337;51.478;7.510;2024-01-15T02:57:33;46.22;;;16.83;;
39656;SDS011;25337;51.478;7.510;2024-01-15T02:59:59;36.05;;;13.77;;
39656;SDS011;25337;51.478;7.510;2024-01-15T03:02:25;38.28;;;14.80;;
39656;SDS011;25337;51.478;7.510;2024-01-15T03:04:50;44.85;;;17.60;;
39656;SDS011;25337;51.478;7.510;2024-01-15T03:07:16;59.47;;;20.10;;
39656;SDS011;25337;51.478;7.510;2024-01-15T03:09:42;44.72;;;16.70;;
39656;SDS011;25337;51.478;7.510;2024-01-15T03:12:07;31.48;;;13.00;;
39656;SDS011;25337;51.478;7.510;2024-01-15T03:14:33;34.83;;;13.50;;
39656;SDS011;25337;51.478;7.510;2024-01-15T03:16:59;39.67;;;15.10;;
39656;SDS011;25337;51.478;7.510;2024-01-15T03:19:25;37.25;;;14.48;;
39656;SDS011;25337;51.478;7.510;2024-01-15T03:21:51;48.97;;;24.52;;
39656;SDS011;25337;51.478;7.510;2024-01-15T03:24:17;51.90;;;23.33;;
39656;SDS011;25337;51.478;7.510;2024-01-15T03:26:42;48.60;;;16.52;;
39656;SDS011;25337;51.478;7.510;2024-01-15T03:29:08;39.88;;;16.63;;
39656;SDS011;25337;51.478;7.510;2024-01-15T03:31:34;57.20;;;19.77;;
39656;SDS011;25337;51.478;7.510;2024-01-15T03:33:59;56.45;;;19.23;;
39656;SDS011;25337;51.478;7.510;2024-01-15T03:36:25;45.63;;;15.57;;
39656;SDS011;25337;51.478;7.510;2024-01-15T03:38:51;30.00;;;11.75;;
39656;SDS011;25337;51.478;7.510;2024-01-15T03:41:16;40.63;;;15.38;;
39656;SDS011;25337;51.478;7.510;2024-01-15T03:43:42;30.42;;;13.52;;
39656;SDS011;25337;51.478;7.510;2024-01-15T03:46:07;47.90;;;15.48;;
39656;SDS011;25337;51.478;7.510;2024-01-15T03:48:33;37.67;;;12.98;;
39656;SDS011;25337;51.478;7.510;2024-01-15T03:50:58;48.05;;;18.40;;
39656;SDS011;25337;51.478;7.510;2024-01-15T03:53:24;29.83;;;10.85;;
39656;SDS011;25337;51.478;7.510;2024-01-15T03:55:50;45.63;;;16.98;;
39656;SDS011;25337;51.478;7.510;2024-01-15T03:58:16;57.50;;;19.38;;
39656;SDS011;25337;51.478;7.510;2024-01-15T04:00:42;37.05;;;13.20;;
39656;SDS011;25337;51.478;7.510;2024-01-15T04:03:08;39.95;;;13.25;;
39656;SDS011;25337;51.478;7.510;2024-01-15T04:05:33;37.17;;;15.60;;
39656;SDS011;25337;51.478;7.510;2024-01-15T04:07:59;47.50;;;21.17;;
39656;SDS011;25337;51.478;7.510;2024-01-15T04:10:24;47.13;;;17.60;;
39656;SDS011;25337;51.478;7.510;2024-01-15T04:12:50;44.53;;;18.10;;
39656;SDS011;25337;51.478;7.510;2024-01-15T04:15:16;38.35;;;14.27;;
39656;SDS011;25337;51.478;7.510;2024-01-15T04:17:42;33.88;;;13.73;;
39656;SDS011;25337;51.478;7.510;2024-01-15T04:20:07;43.70;;;19.65;;
39656;SDS011;25337;51.478;7.510;2024-01-15T04:22:36;53.88;;;19.08;;
39656;SDS011;25337;51.478;7.510;2024-01-15T04:25:02;39.25;;;15.77;;
39656;SDS011;25337;51.478;7.510;2024-01-15T04:27:28;43.38;;;15.75;;
39656;SDS011;25337;51.478;7.510;2024-01-15T04:29:54;45.17;;;17.83;;
39656;SDS011;25337;51.478;7.510;2024-01-15T04:32:20;21.65;;;6.35;;
39656;SDS011;25337;51.478;7.510;2024-01-15T04:34:45;31.55;;;12.13;;
39656;SDS011;25337;51.478;7.510;2024-01-15T04:37:11;31.40;;;12.68;;
39656;SDS011;25337;51.478;7.510;2024-01-15T04:39:38;36.20;;;18.48;;
39656;SDS011;25337;51.478;7.510;2024-01-15T04:42:04;29.33;;;12.52;;
39656;SDS011;25337;51.478;7.510;2024-01-15T04:44:30;32.03;;;13.98;;
39656;SDS011;25337;51.478;7.510;2024-01-15T04:46:55;37.00;;;13.50;;
39656;SDS011;25337;51.478;7.510;2024-01-15T04:49:21;27.98;;;10.32;;
39656;SDS011;25337;51.478;7.510;2024-01-15T04:51:47;29.67;;;10.98;;
39656;SDS011;25337;51.478;7.510;2024-01-15T04:54:12;34.22;;;12.85;;
39656;SDS011;25337;51.478;7.510;2024-01-15T04:56:42;38.13;;;12.52;;
39656;SDS011;25337;51.478;7.510;2024-01-15T04:59:08;27.45;;;11.10;;
39656;SDS011;25337;51.478;7.510;2024-01-15T05:01:34;29.23;;;11.07;;
39656;SDS011;25337;51.478;7.510;2024-01-15T05:04:00;24.77;;;10.98;;
39656;SDS011;25337;51.478;7.510;2024-01-15T05:06:25;25.77;;;9.13;;
39656;SDS011;25337;51.478;7.510;2024-01-15T05:08:51;26.25;;;10.10;;
39656;SDS011;25337;51.478;7.510;2024-01-15T05:11:16;25.48;;;10.10;;
39656;SDS011;25337;51.478;7.510;2024-01-15T05:13:42;21.83;;;8.90;;
39656;SDS011;25337;51.478;7.510;2024-01-15T05:16:08;33.13;;;15.35;;
39656;SDS011;25337;51.478;7.510;2024-01-15T05:18:33;28.05;;;11.00;;
39656;SDS011;25337;51.478;7.510;2024-01-15T05:20:59;24.58;;;8.90;;
39656;SDS011;25337;51.478;7.510;2024-01-15T05:23:25;24.30;;;9.43;;
39656;SDS011;25337;51.478;7.510;2024-01-15T05:25:50;30.42;;;11.90;;
39656;SDS011;25337;51.478;7.510;2024-01-15T05:28:16;24.33;;;10.02;;
39656;SDS011;25337;51.478;7.510;2024-01-15T05:30:42;41.88;;;23.88;;
39656;SDS011;25337;51.478;7.510;2024-01-15T05:33:07;32.45;;;12.40;;
39656;SDS011;25337;51.478;7.510;2024-01-15T05:35:33;32.80;;;12.75;;
39656;SDS011;25337;51.478;7.510;2024-01-15T05:37:59;34.65;;;12.75;;
39656;SDS011;25337;51.478;7.510;2024-01-15T05:40:25;37.33;;;13.82;;
39656;SDS011;25337;51.478;7.510;2024-01-15T05:42:50;36.08;;;12.13;;
39656;SDS011;25337;51.478;7.510;2024-01-15T05:45:16;24.10;;;8.57;;
39656;SDS011;25337;51.478;7.510;2024-01-15T05:47:42;30.52;;;14.80;;
39656;SDS011;25337;51.478;7.510;2024-01-15T05:50:09;33.80;;;13.07;;
39656;SDS011;25337;51.478;7.510;2024-01-15T05:52:34;36.97;;;14.30;;
39656;SDS011;25337;51.478;7.510;2024-01-15T05:55:00;38.92;;;15.52;;
39656;SDS011;25337;51.478;7.510;2024-01-15T05:57:26;32.78;;;15.82;;
39656;SDS011;25337;51.478;7.510;2024-01-15T05:59:52;31.88;;;10.50;;
39656;SDS011;25337;51.478;7.510;2024-01-15T06:02:18;38.17;;;13.85;;
39656;SDS011;25337;51.478;7.510;2024-01-15T06:04:44;36.30;;;11.30;;
39656;SDS011;25337;51.478;7.510;2024-01-15T06:07:10;41.75;;;12.80;;
39656;SDS011;25337;51.478;7.510;2024-01-15T06:09:35;30.90;;;11.98;;
39656;SDS011;25337;51.478;7.510;2024-01-15T06:12:01;41.78;;;14.40;;
39656;SDS011;25337;51.478;7.510;2024-01-15T06:14:26;32.10;;;13.48;;
39656;SDS011;25337;51.478;7.510;2024-01-15T06:16:52;36.25;;;13.88;;
39656;SDS011;25337;51.478;7.510;2024-01-15T06:19:18;29.95;;;11.77;;
39656;SDS011;25337;51.478;7.510;2024-01-15T06:21:43;30.83;;;11.98;;
39656;SDS011;25337;51.478;7.510;2024-01-15T06:24:09;20.10;;;8.25;;
39656;SDS011;25337;51.478;7.510;2024-01-15T06:26:35;31.05;;;15.40;;
39656;SDS011;25337;51.478;7.510;2024-01-15T06:29:01;28.63;;;10.50;;
39656;SDS011;25337;51.478;7.510;2024-01-15T06:31:28;35.50;;;13.88;;
39656;SDS011;25337;51.478;7.510;2024-01-15T06:33:53;30.55;;;12.63;;
39656;SDS011;25337;51.478;7.510;2024-01-15T06:36:20;35.03;;;18.45;;
39656;SDS011;25337;51.478;7.510;2024-01-15T06:38:45;35.72;;;12.70;;
39656;SDS011;25337;51.478;7.510;2024-01-15T06:41:11;28.73;;;9.07;;
39656;SDS011;25337;51.478;7.510;2024-01-15T06:43:36;29.00;;;10.07;;
39656;SDS011;25337;51.478;7.510;2024-01-15T06:46:02;29.67;;;12.38;;
39656;SDS011;25337;51.478;7.510;2024-01-15T06:48:28;29.13;;;10.98;;
39656;SDS011;25337;51.478;7.510;2024-01-15T06:50:53;24.73;;;9.80;;
39656;SDS011;25337;51.478;7.510;2024-01-15T06:53:19;31.65;;;13.50;;
39656;SDS011;25337;51.478;7.510;2024-01-15T06:55:45;32.75;;;14.43;;
39656;SDS011;25337;51.478;7.510;2024-01-15T06:58:11;27.25;;;10.77;;
39656;SDS011;25337;51.478;7.510;2024-01-15T07:00:37;32.78;;;12.63;;
39656;SDS011;25337;51.478;7.510;2024-01-15T07:03:03;31.40;;;12.18;;
39656;SDS011;25337;51.478;7.510;2024-01-15T07:05:28;36.45;;;14.73;;
39656;SDS011;25337;51.478;7.510;2024-01-15T07:07:55;28.73;;;8.88;;
39656;SDS011;25337;51.478;7.510;2024-01-15T07:10:21;35.22;;;13.55;;
39656;SDS011;25337;51.478;7.510;2024-01-15T07:12:46;22.90;;;10.52;;
39656;SDS011;25337;51.478;7.510;2024-01-15T07:15:12;36.13;;;13.25;;
39656;SDS011;25337;51.478;7.510;2024-01-15T07:17:38;22.90;;;11.43;;
39656;SDS011;25337;51.478;7.510;2024-01-15T07:20:07;23.75;;;8.63;;
39656;SDS011;25337;51.478;7.510;2024-01-15T07:22:37;33.40;;;10.88;;
39656;SDS011;25337;51.478;7.510;2024-01-15T07:25:03;26.33;;;9.55;;
39656;SDS011;25337;51.478;7.510;2024-01-15T07:27:32;26.90;;;11.05;;
39656;SDS011;25337;51.478;7.510;2024-01-15T07:29:58;31.40;;;11.52;;
39656;SDS011;25337;51.478;7.510;2024-01-15T07:32:24;34.15;;;16.45;;
39656;SDS011;25337;51.478;7.510;2024-01-15T07:34:49;29.40;;;11.50;;
39656;SDS011;25337;51.478;7.510;2024-01-15T07:37:15;33.75;;;11.65;;
39656;SDS011;25337;51.478;7.510;2024-01-15T07:39:41;24.42;;;11.27;;
39656;SDS011;25337;51.478;7.510;2024-01-15T07:42:06;33.42;;;12.70;;
39656;SDS011;25337;51.478;7.510;2024-01-15T07:44:32;27.08;;;10.07;;
39656;SDS011;25337;51.478;7.510;2024-01-15T07:46:58;30.65;;;10.50;;
39656;SDS011;25337;51.478;7.510;2024-01-15T07:49:24;27.48;;;10.25;;
39656;SDS011;25337;51.478;7.510;2024-01-15T07:51:49;25.38;;;9.73;;
39656;SDS011;25337;51.478;7.510;2024-01-15T07:54:15;30.85;;;12.30;;
39656;SDS011;25337;51.478;7.510;2024-01-15T07:57:02;27.35;;;11.35;;
39656;SDS011;25337;51.478;7.510;2024-01-15T07:59:30;21.92;;;8.55;;
39656;SDS011;25337;51.478;7.510;2024-01-15T08:01:56;17.05;;;7.68;;
39656;SDS011;25337;51.478;7.510;2024-01-15T08:04:23;20.77;;;8.35;;
39656;SDS011;25337;51.478;7.510;2024-01-15T08:06:49;16.35;;;8.20;;
39656;SDS011;25337;51.478;7.510;2024-01-15T08:09:15;23.15;;;9.00;;
39656;SDS011;25337;51.478;7.510;2024-01-15T08:11:40;24.08;;;9.77;;
39656;SDS011;25337;51.478;7.510;2024-01-15T08:14:07;18.33;;;7.03;;
39656;SDS011;25337;51.478;7.510;2024-01-15T08:16:33;18.67;;;7.70;;
39656;SDS011;25337;51.478;7.510;2024-01-15T08:18:59;14.35;;;6.10;;
39656;SDS011;25337;51.478;7.510;2024-01-15T08:21:25;17.33;;;8.43;;
39656;SDS011;25337;51.478;7.510;2024-01-15T08:23:52;21.00;;;9.50;;
39656;SDS011;25337;51.478;7.510;2024-01-15T08:26:17;14.63;;;5.75;;
39656;SDS011;25337;51.478;7.510;2024-01-15T08:28:43;16.15;;;6.93;;
39656;SDS011;25337;51.478;7.510;2024-01-15T08:31:08;14.48;;;6.78;;
39656;SDS011;25337;51.478;7.510;2024-01-15T08:33:34;22.88;;;8.65;;
39656;SDS011;25337;51.478;7.510;2024-01-15T08:36:01;15.75;;;6.53;;
39656;SDS011;25337;51.478;7.510;2024-01-15T08:38:26;25.05;;;11.63;;
39656;SDS011;25337;51.478;7.510;2024-01-15T08:40:52;22.30;;;7.80;;
39656;SDS011;25337;51.478;7.510;2024-01-15T08:43:18;26.42;;;11.32;;
39656;SDS011;25337;51.478;7.510;2024-01-15T08:45:44;23.70;;;9.73;;
39656;SDS011;25337;51.478;7.510;2024-01-15T08:48:10;25.73;;;10.90;;
39656;SDS011;25337;51.478;7.510;2024-01-15T08:50:35;26.33;;;11.05;;
39656;SDS011;25337;51.478;7.510;2024-01-15T08:53:01;34.45;;;13.55;;
39656;SDS011;25337;51.478;7.510;2024-01-15T08:55:27;22.88;;;10.02;;
39656;SDS011;25337;51.478;7.510;2024-01-15T08:57:53;27.17;;;10.25;;
39656;SDS011;25337;51.478;7.510;2024-01-15T09:00:19;29.50;;;11.05;;
39656;SDS011;25337;51.478;7.510;2024-01-15T09:02:45;25.10;;;10.07;;
39656;SDS011;25337;51.478;7.510;2024-01-15T09:05:10;29.73;;;11.75;;
39656;SDS011;25337;51.478;7.510;2024-01-15T09:07:36;30.60;;;14.98;;
39656;SDS011;25337;51.478;7.510;2024-01-15T09:10:01;30.58;;;11.82;;
39656;SDS011;25337;51.478;7.510;2024-01-15T09:12:27;32.78;;;14.75;;
39656;SDS011;25337;51.478;7.510;2024-01-15T09:14:54;30.13;;;12.20;;
39656;SDS011;25337;51.478;7.510;2024-01-15T09:17:20;26.98;;;10.57;;
39656;SDS011;25337;51.478;7.510;2024-01-15T09:19:48;25.65;;;9.93;;
39656;SDS011;25337;51.478;7.510;2024-01-15T09:22:14;19.02;;;8.00;;
39656;SDS011;25337;51.478;7.510;2024-01-15T09:24:43;27.25;;;11.00;;
39656;SDS011;25337;51.478;7.510;2024-01-15T09:27:09;27.13;;;10.82;;
39656;SDS011;25337;51.478;7.510;2024-01-15T09:29:35;19.85;;;9.82;;
39656;SDS011;25337;51.478;7.510;2024-01-15T09:32:04;26.83;;;11.40;;
39656;SDS011;25337;51.478;7.510;2024-01-15T09:34:32;26.33;;;10.70;;
39656;SDS011;25337;51.478;7.510;2024-01-15T09:36:58;25.33;;;10.40;;
39656;SDS011;25337;51.478;7.510;2024-01-15T09:39:25;22.80;;;8.73;;
39656;SDS011;25337;51.478;7.510;2024-01-15T09:41:51;30.23;;;16.23;;
39656;SDS011;25337;51.478;7.510;2024-01-15T09:44:17;15.60;;;7.50;;
39656;SDS011;25337;51.478;7.510;2024-01-15T09:46:44;23.13;;;9.77;;
39656;SDS011;25337;51.478;7.510;2024-01-15T09:49:10;32.67;;;14.63;;
39656;SDS011;25337;51.478;7.510;2024-01-15T09:51:36;28.80;;;12.73;;
39656;SDS011;25337;51.478;7.510;2024-01-15T09:54:03;24.33;;;9.88;;
39656;SDS011;25337;51.478;7.510;2024-01-15T09:56:30;26.88;;;10.70;;
39656;SDS011;25337;51.478;7.510;2024-01-15T09:58:56;26.35;;;13.52;;
39656;SDS011;25337;51.478;7.510;2024-01-15T10:01:23;17.90;;;6.35;;
39656;SDS011;25337;51.478;7.510;2024-01-15T10:03:49;21.40;;;9.32;;
39656;SDS011;25337;51.478;7.510;2024-01-15T10:06:16;27.42;;;11.45;;
39656;SDS011;25337;51.478;7.510;2024-01-15T10:08:42;20.05;;;6.97;;
39656;SDS011;25337;51.478;7.510;2024-01-15T10:11:12;14.50;;;6.28;;
39656;SDS011;25337;51.478;7.510;2024-01-15T10:13:38;22.60;;;12.00;;
39656;SDS011;25337;51.478;7.510;2024-01-15T10:16:04;18.45;;;6.82;;
39656;SDS011;25337;51.478;7.510;2024-01-15T10:18:31;18.38;;;7.80;;
39656;SDS011;25337;51.478;7.510;2024-01-15T10:20:57;23.90;;;12.02;;
39656;SDS011;25337;51.478;7.510;2024-01-15T10:23:23;19.77;;;7.05;;
39656;SDS011;25337;51.478;7.510;2024-01-15T10:25:51;17.20;;;7.00;;
39656;SDS011;25337;51.478;7.510;2024-01-15T10:28:18;15.77;;;6.35;;
39656;SDS011;25337;51.478;7.510;2024-01-15T10:30:44;26.00;;;6.03;;
39656;SDS011;25337;51.478;7.510;2024-01-15T10:33:10;17.63;;;7.75;;
39656;SDS011;25337;51.478;7.510;2024-01-15T10:35:37;17.45;;;6.80;;
39656;SDS011;25337;51.478;7.510;2024-01-15T10:38:03;17.40;;;8.07;;
39656;SDS011;25337;51.478;7.510;2024-01-15T10:40:30;17.75;;;6.90;;
39656;SDS011;25337;51.478;7.510;2024-01-15T10:42:57;18.85;;;9.90;;
39656;SDS011;25337;51.478;7.510;2024-01-15T10:45:22;19.50;;;8.70;;
39656;SDS011;25337;51.478;7.510;2024-01-15T10:47:49;20.27;;;8.50;;
39656;SDS011;25337;51.478;7.510;2024-01-15T10:50:15;14.55;;;5.82;;
39656;SDS011;25337;51.478;7.510;2024-01-15T10:52:41;17.60;;;8.02;;
39656;SDS011;25337;51.478;7.510;2024-01-15T10:55:10;20.83;;;10.87;;
39656;SDS011;25337;51.478;7.510;2024-01-15T10:57:37;17.13;;;7.03;;
39656;SDS011;25337;51.478;7.510;2024-01-15T11:00:03;17.77;;;7.32;;
39656;SDS011;25337;51.478;7.510;2024-01-15T11:02:34;21.27;;;8.85;;
39656;SDS011;25337;51.478;7.510;2024-01-15T11:05:01;15.90;;;6.13;;
39656;SDS011;25337;51.478;7.510;2024-01-15T11:07:28;19.52;;;9.57;;
39656;SDS011;25337;51.478;7.510;2024-01-15T11:09:55;20.75;;;7.57;;
39656;SDS011;25337;51.478;7.510;2024-01-15T11:12:23;12.05;;;5.15;;
39656;SDS011;25337;51.478;7.510;2024-01-15T11:14:50;18.88;;;7.38;;
39656;SDS011;25337;51.478;7.510;2024-01-15T11:17:16;13.85;;;5.18;;
39656;SDS011;25337;51.478;7.510;2024-01-15T11:22:10;19.48;;;8.43;;
39656;SDS011;25337;51.478;7.510;2024-01-15T11:24:54;16.55;;;6.05;;
39656;SDS011;25337;51.478;7.510;2024-01-15T11:27:39;14.73;;;5.63;;
39656;SDS011;25337;51.478;7.510;2024-01-15T11:30:17;19.83;;;7.07;;
39656;SDS011;25337;51.478;7.510;2024-01-15T11:32:45;15.60;;;6.38;;
39656;SDS011;25337;51.478;7.510;2024-01-15T11:35:12;14.20;;;6.32;;
39656;SDS011;25337;51.478;7.510;2024-01-15T11:40:20;13.25;;;6.15;;
39656;SDS011;25337;51.478;7.510;2024-01-15T11:42:47;16.08;;;6.68;;
39656;SDS011;25337;51.478;7.510;2024-01-15T11:45:22;19.77;;;9.43;;
39656;SDS011;25337;51.478;7.510;2024-01-15T11:50:20;15.55;;;5.75;;
39656;SDS011;25337;51.478;7.510;2024-01-15T11:52:49;18.60;;;8.40;;
39656;SDS011;25337;51.478;7.510;2024-01-15T11:57:55;16.35;;;7.97;;
39656;SDS011;25337;51.478;7.510;2024-01-15T12:00:25;17.70;;;7.13;;
39656;SDS011;25337;51.478;7.510;2024-01-15T12:02:51;13.75;;;5.72;;
39656;SDS011;25337;51.478;7.510;2024-01-15T12:05:17;24.55;;;7.57;;
39656;SDS011;25337;51.478;7.510;2024-01-15T12:07:45;14.45;;;6.28;;
39656;SDS011;25337;51.478;7.510;2024-01-15T12:10:16;14.18;;;6.18;;
39656;SDS011;25337;51.478;7.510;2024-01-15T12:12:59;18.15;;;6.22;;
39656;SDS011;25337;51.478;7.510;2024-01-15T12:15:28;17.42;;;8.65;;
39656;SDS011;25337;51.478;7.510;2024-01-15T12:17:58;15.02;;;5.07;;
39656;SDS011;25337;51.478;7.510;2024-01-15T12:20:27;15.88;;;6.53;;
39656;SDS011;25337;51.478;7.510;2024-01-15T12:22:54;14.93;;;8.52;;
39656;SDS011;25337;51.478;7.510;2024-01-15T12:25:23;14.68;;;5.18;;
39656;SDS011;25337;51.478;7.510;2024-01-15T12:27:50;12.75;;;5.05;;
39656;SDS011;25337;51.478;7.510;2024-01-15T12:30:16;8.05;;;3.88;;
39656;SDS011;25337;51.478;7.510;2024-01-15T12:32:42;12.32;;;4.70;;
39656;SDS011;25337;51.478;7.510;2024-01-15T12:35:08;15.75;;;6.43;;
39656;SDS011;25337;51.478;7.510;2024-01-15T12:37:35;13.82;;;4.43;;
39656;SDS011;25337;51.478;7.510;2024-01-15T12:40:02;17.55;;;6.65;;
39656;SDS011;25337;51.478;7.510;2024-01-15T12:42:31;10.48;;;4.50;;
39656;SDS011;25337;51.478;7.510;2024-01-15T12:45:00;15.05;;;5.28;;
39656;SDS011;25337;51.478;7.510;2024-01-15T12:47:26;14.93;;;5.68;;
39656;SDS011;25337;51.478;7.510;2024-01-15T12:49:52;17.65;;;5.75;;
39656;SDS011;25337;51.478;7.510;2024-01-15T12:52:20;15.85;;;5.28;;
39656;SDS011;25337;51.478;7.510;2024-01-15T12:54:47;12.93;;;5.72;;
39656;SDS011;25337;51.478;7.510;2024-01-15T12:57:14;12.80;;;6.13;;
39656;SDS011;25337;51.478;7.510;2024-01-15T12:59:40;13.40;;;4.68;;
39656;SDS011;25337;51.478;7.510;2024-01-15T13:02:05;16.20;;;7.10;;
39656;SDS011;25337;51.478;7.510;2024-01-15T13:04:32;14.32;;;5.63;;
39656;SDS011;25337;51.478;7.510;2024-01-15T13:06:57;14.35;;;6.20;;
39656;SDS011;25337;51.478;7.510;2024-01-15T13:09:23;13.32;;;5.95;;
39656;SDS011;25337;51.478;7.510;2024-01-15T13:11:49;18.98;;;7.55;;
39656;SDS011;25337;51.478;7.510;2024-01-15T13:14:14;17.20;;;8.27;;
39656;SDS011;25337;51.478;7.510;2024-01-15T13:16:40;11.60;;;4.80;;
39656;SDS011;25337;51.478;7.510;2024-01-15T13:19:07;16.73;;;5.10;;
39656;SDS011;25337;51.478;7.510;2024-01-15T13:21:33;18.83;;;5.97;;
39656;SDS011;25337;51.478;7.510;2024-01-15T13:23:59;17.55;;;6.55;;
39656;SDS011;25337;51.478;7.510;2024-01-15T13:26:25;14.25;;;6.15;;
39656;SDS011;25337;51.478;7.510;2024-01-15T13:28:50;13.48;;;5.90;;
39656;SDS011;25337;51.478;7.510;2024-01-15T13:31:16;13.70;;;5.75;;
39656;SDS011;25337;51.478;7.510;2024-01-15T13:33:42;17.73;;;6.75;;
39656;SDS011;25337;51.478;7.510;2024-01-15T13:36:07;16.95;;;7.47;;
39656;SDS011;25337;51.478;7.510;2024-01-15T13:38:36;14.93;;;6.85;;
39656;SDS011;25337;51.478;7.510;2024-01-15T13:41:03;17.67;;;7.35;;
39656;SDS011;25337;51.478;7.510;2024-01-15T13:43:32;13.02;;;5.28;;
39656;SDS011;25337;51.478;7.510;2024-01-15T13:45:58;14.40;;;6.45;;
39656;SDS011;25337;51.478;7.510;2024-01-15T13:48:24;15.13;;;6.30;;
39656;SDS011;25337;51.478;7.510;2024-01-15T13:50:51;14.93;;;5.63;;
39656;SDS011;25337;51.478;7.510;2024-01-15T13:53:17;15.10;;;6.13;;
39656;SDS011;25337;51.478;7.510;2024-01-15T13:55:44;11.27;;;5.90;;
39656;SDS011;25337;51.478;7.510;2024-01-15T13:58:09;18.98;;;6.85;;
39656;SDS011;25337;51.478;7.510;2024-01-15T14:00:35;19.08;;;8.02;;
39656;SDS011;25337;51.478;7.510;2024-01-15T14:03:01;10.45;;;4.50;;
39656;SDS011;25337;51.478;7.510;2024-01-15T14:05:27;16.55;;;7.05;;
39656;SDS011;25337;51.478;7.510;2024-01-15T14:07:53;10.52;;;4.47;;
39656;SDS011;25337;51.478;7.510;2024-01-15T14:10:18;13.32;;;6.55;;
39656;SDS011;25337;51.478;7.510;2024-01-15T14:12:45;22.00;;;7.65;;
39656;SDS011;25337;51.478;7.510;2024-01-15T14:15:11;14.80;;;5.22;;
39656;SDS011;25337;51.478;7.510;2024-01-15T14:17:37;18.92;;;8.32;;
39656;SDS011;25337;51.478;7.510;2024-01-15T14:20:03;16.88;;;8.45;;
39656;SDS011;25337;51.478;7.510;2024-01-15T14:22:30;19.08;;;9.52;;
39656;SDS011;25337;51.478;7.510;2024-01-15T14:24:56;13.50;;;6.22;;
39656;SDS011;25337;51.478;7.510;2024-01-15T14:27:21;13.05;;;5.80;;
39656;SDS011;25337;51.478;7.510;2024-01-15T14:29:47;11.15;;;4.97;;
39656;SDS011;25337;51.478;7.510;2024-01-15T14:32:12;16.25;;;7.25;;
39656;SDS011;25337;51.478;7.510;2024-01-15T14:34:38;11.82;;;5.35;;